createdAt,value
2023-04-30T00:01:15.002Z,22.25
2023-04-30T00:03:48.480Z,22.25
2023-04-30T00:06:21.268Z,22.25
2023-04-30T00:08:54.313Z,22.24
2023-04-30T00:11:27.230Z,22.24
2023-04-30T00:14:00.566Z,22.24
2023-04-30T00:16:34.081Z,22.23
2023-04-30T00:19:07.302Z,22.23
2023-04-30T00:21:40.296Z,22.23
2023-04-30T00:24:13.250Z,22.23
2023-04-30T00:26:46.422Z,22.23
2023-04-30T00:29:19.179Z,22.22
2023-04-30T00:31:52.141Z,22.22
2023-04-30T00:34:25.384Z,22.22
2023-04-30T00:36:58.147Z,22.22
2023-04-30T00:39:31.184Z,22.22
2023-04-30T00:42:04.304Z,22.21
2023-04-30T00:44:37.213Z,22.21
2023-04-30T00:47:10.300Z,22.21
2023-04-30T00:49:43.226Z,22.21
2023-04-30T00:52:16.226Z,22.21
2023-04-30T00:54:49.346Z,22.20
2023-04-30T00:57:22.149Z,22.20
2023-04-30T00:59:55.447Z,22.19
2023-04-30T01:02:28.300Z,22.19
2023-04-30T01:05:01.093Z,22.19
2023-04-30T01:07:34.210Z,22.18
2023-04-30T01:10:07.130Z,22.18
2023-04-30T01:12:40.454Z,22.17
2023-04-30T01:15:13.357Z,22.17
2023-04-30T01:17:46.458Z,22.17
2023-04-30T01:20:19.213Z,22.16
2023-04-30T01:22:52.387Z,22.16
2023-04-30T01:25:25.126Z,22.15
2023-04-30T01:27:58.402Z,22.15
2023-04-30T01:30:37.590Z,22.15
2023-04-30T01:33:11.133Z,22.15
2023-04-30T01:35:44.284Z,22.14
2023-04-30T01:38:17.225Z,22.14
2023-04-30T01:40:50.241Z,22.13
2023-04-30T01:43:23.308Z,22.13
2023-04-30T01:45:56.482Z,22.13
2023-04-30T01:48:29.239Z,22.12
2023-04-30T01:51:02.490Z,22.12
2023-04-30T01:53:35.472Z,22.12
2023-04-30T01:56:08.123Z,22.12
2023-04-30T01:58:41.440Z,22.12
2023-04-30T02:01:14.287Z,22.12
2023-04-30T02:03:47.540Z,22.12
2023-04-30T02:06:20.344Z,22.12
2023-04-30T02:08:53.433Z,22.11
2023-04-30T02:11:28.202Z,22.11
2023-04-30T02:14:01.526Z,22.11
2023-04-30T02:16:34.567Z,22.11
2023-04-30T02:19:07.508Z,22.10
2023-04-30T02:21:40.431Z,22.10
2023-04-30T02:24:13.545Z,22.10
2023-04-30T02:26:46.538Z,22.10
2023-04-30T02:29:19.559Z,22.09
2023-04-30T02:31:52.654Z,22.09
2023-04-30T02:34:25.318Z,22.09
2023-04-30T02:36:58.570Z,22.08
2023-04-30T02:39:31.454Z,22.08
2023-04-30T02:42:04.202Z,22.08
2023-04-30T02:44:37.372Z,22.08
2023-04-30T02:47:10.368Z,22.08
2023-04-30T02:49:43.501Z,22.07
2023-04-30T02:52:16.320Z,22.07
2023-04-30T02:54:49.392Z,22.07
2023-04-30T02:57:22.330Z,22.06
2023-04-30T02:59:55.670Z,22.06
2023-04-30T03:02:28.609Z,22.06
2023-04-30T03:05:01.485Z,22.06
2023-04-30T03:07:34.518Z,22.06
2023-04-30T03:10:07.511Z,22.05
2023-04-30T03:12:40.569Z,22.05
2023-04-30T03:15:13.616Z,22.05
2023-04-30T03:17:52.568Z,22.05
2023-04-30T03:20:25.371Z,22.04
2023-04-30T03:22:58.404Z,22.04
2023-04-30T03:25:31.708Z,22.04
2023-04-30T03:28:05.272Z,22.03
2023-04-30T03:30:38.439Z,22.03
2023-04-30T03:33:11.450Z,22.02
2023-04-30T03:35:58.617Z,22.02
2023-04-30T03:38:31.631Z,22.02
2023-04-30T03:41:04.480Z,22.02
2023-04-30T03:43:37.454Z,22.01
2023-04-30T03:46:10.665Z,22.01
2023-04-30T03:48:43.597Z,22.01
2023-04-30T03:51:16.452Z,22.01
2023-04-30T03:53:49.377Z,22.00
2023-04-30T03:56:22.422Z,22.00
2023-04-30T03:58:55.453Z,22.00
2023-04-30T04:01:28.539Z,22.00
2023-04-30T04:04:01.380Z,21.99
2023-04-30T04:06:34.406Z,21.99
2023-04-30T04:09:07.339Z,21.99
2023-04-30T04:11:40.348Z,21.99
2023-04-30T04:14:13.489Z,21.98
2023-04-30T04:16:46.754Z,21.98
2023-04-30T04:19:19.466Z,21.98
2023-04-30T04:21:52.601Z,21.98
2023-04-30T04:24:25.461Z,21.97
2023-04-30T04:27:04.433Z,21.97
2023-04-30T04:29:37.479Z,21.97
2023-04-30T04:32:10.389Z,21.96
2023-04-30T04:34:43.649Z,21.96
2023-04-30T04:37:16.538Z,21.96
2023-04-30T04:39:49.499Z,21.96
2023-04-30T04:42:22.693Z,21.96
2023-04-30T04:44:55.411Z,21.95
2023-04-30T04:47:42.627Z,21.95
2023-04-30T04:50:15.778Z,21.95
2023-04-30T04:52:48.524Z,21.95
2023-04-30T04:55:21.524Z,21.95
2023-04-30T04:57:54.508Z,21.95
2023-04-30T05:00:27.885Z,21.94
2023-04-30T05:03:01.807Z,21.94
2023-04-30T05:05:34.664Z,21.94
2023-04-30T05:08:10.295Z,21.94
2023-04-30T05:10:43.722Z,21.94
2023-04-30T05:13:16.752Z,21.94
2023-04-30T05:15:49.564Z,21.93
2023-04-30T05:18:22.706Z,21.93
2023-04-30T05:20:55.579Z,21.93
2023-04-30T05:23:28.552Z,21.93
2023-04-30T05:26:01.631Z,21.92
2023-04-30T05:28:34.612Z,21.92
2023-04-30T05:31:07.431Z,21.92
2023-04-30T05:33:40.738Z,21.92
2023-04-30T05:36:13.996Z,21.92
2023-04-30T05:38:47.730Z,21.91
2023-04-30T05:41:20.568Z,21.91
2023-04-30T05:43:53.834Z,21.91
2023-04-30T05:46:26.690Z,21.90
2023-04-30T05:48:59.671Z,21.90
2023-04-30T05:51:32.838Z,21.90
2023-04-30T05:54:05.486Z,21.90
2023-04-30T05:56:38.871Z,21.90
2023-04-30T05:59:11.565Z,21.90
2023-04-30T06:01:44.536Z,21.89
2023-04-30T06:04:17.925Z,21.89
2023-04-30T06:06:50.877Z,21.89
2023-04-30T06:09:23.893Z,21.88
2023-04-30T06:11:56.532Z,21.88
2023-04-30T06:14:29.523Z,21.88
2023-04-30T06:17:02.777Z,21.89
2023-04-30T06:19:35.723Z,21.88
2023-04-30T06:22:08.776Z,21.88
2023-04-30T06:24:41.866Z,21.88
2023-04-30T06:27:14.904Z,21.88
2023-04-30T06:29:47.549Z,21.88
2023-04-30T06:32:26.870Z,21.88
2023-04-30T06:34:59.849Z,21.88
2023-04-30T06:37:33.563Z,21.88
2023-04-30T06:40:05.838Z,21.88
2023-04-30T06:42:39.014Z,21.87
2023-04-30T06:45:12.722Z,21.87
2023-04-30T06:47:45.934Z,21.87
2023-04-30T06:50:18.592Z,21.87
2023-04-30T06:52:51.548Z,21.87
2023-04-30T06:55:27.478Z,21.87
2023-04-30T06:58:00.685Z,21.88
2023-04-30T07:00:33.574Z,21.88
2023-04-30T07:03:06.676Z,21.88
2023-04-30T07:05:40.059Z,21.88
2023-04-30T07:08:12.600Z,21.89
2023-04-30T07:10:45.696Z,21.89
2023-04-30T07:13:18.714Z,21.89
2023-04-30T07:15:51.827Z,21.89
2023-04-30T07:18:25.473Z,21.90
2023-04-30T07:20:58.757Z,21.90
2023-04-30T07:23:31.985Z,21.90
2023-04-30T07:26:04.593Z,21.90
2023-04-30T07:28:37.785Z,21.90
2023-04-30T07:31:10.680Z,21.90
2023-04-30T07:33:43.784Z,21.90
2023-04-30T07:36:16.684Z,21.90
2023-04-30T07:38:49.801Z,21.91
2023-04-30T07:41:22.801Z,21.91
2023-04-30T07:43:55.723Z,21.91
2023-04-30T07:46:28.845Z,21.91
2023-04-30T07:49:01.811Z,21.91
2023-04-30T07:51:34.818Z,21.91
2023-04-30T07:54:07.654Z,21.91
2023-04-30T07:56:40.692Z,21.92
2023-04-30T07:59:13.664Z,21.92
2023-04-30T08:01:46.795Z,21.92
2023-04-30T08:04:19.714Z,21.92
2023-04-30T08:06:52.662Z,21.92
2023-04-30T08:09:25.840Z,21.92
2023-04-30T08:11:58.871Z,21.92
2023-04-30T08:14:31.747Z,21.91
2023-04-30T08:17:05.040Z,21.89
2023-04-30T08:19:37.827Z,21.86
2023-04-30T08:22:11.053Z,21.82
2023-04-30T08:24:44.026Z,21.78
2023-04-30T08:27:17.192Z,21.76
2023-04-30T08:29:51.072Z,21.75
2023-04-30T08:32:24.183Z,21.75
2023-04-30T08:34:57.154Z,21.75
2023-04-30T08:37:29.980Z,21.76
2023-04-30T08:40:03.037Z,21.78
2023-04-30T08:42:36.092Z,21.79
2023-04-30T08:45:08.977Z,21.81
2023-04-30T08:47:42.209Z,21.83
2023-04-30T08:50:15.055Z,21.86
2023-04-30T08:52:48.115Z,21.88
2023-04-30T08:55:22.086Z,21.90
2023-04-30T08:58:09.156Z,21.92
2023-04-30T09:00:42.182Z,21.94
2023-04-30T09:03:15.223Z,21.96
2023-04-30T09:05:48.075Z,21.98
2023-04-30T09:08:21.181Z,22.00
2023-04-30T09:10:54.290Z,22.03
2023-04-30T09:13:28.047Z,22.05
2023-04-30T09:16:01.032Z,22.07
2023-04-30T09:18:34.130Z,22.09
2023-04-30T09:21:07.117Z,22.11
2023-04-30T09:23:40.148Z,22.13
2023-04-30T09:26:13.144Z,22.15
2023-04-30T09:28:47.106Z,22.17
2023-04-30T09:31:19.930Z,22.19
2023-04-30T09:33:54.225Z,22.20
2023-04-30T09:36:28.193Z,22.22
2023-04-30T09:39:01.128Z,22.23
2023-04-30T09:41:33.817Z,22.25
2023-04-30T09:44:06.800Z,22.26
2023-04-30T09:46:40.141Z,22.27
2023-04-30T09:49:13.164Z,22.28
2023-04-30T09:51:45.942Z,22.29
2023-04-30T09:54:19.009Z,22.30
2023-04-30T09:56:52.153Z,22.31
2023-04-30T09:59:24.821Z,22.32
2023-04-30T10:01:57.950Z,22.33
2023-04-30T10:04:30.837Z,22.34
2023-04-30T10:07:04.124Z,22.35
2023-04-30T10:09:37.076Z,22.36
2023-04-30T10:12:09.844Z,22.37
2023-04-30T10:14:43.341Z,22.38
2023-04-30T10:17:17.312Z,22.39
2023-04-30T10:19:50.889Z,22.40
2023-04-30T10:22:24.001Z,22.41
2023-04-30T10:24:57.348Z,22.42
2023-04-30T10:27:29.938Z,22.43
2023-04-30T10:30:02.868Z,22.43
2023-04-30T10:32:36.075Z,22.44
2023-04-30T10:35:09.054Z,22.45
2023-04-30T10:37:42.031Z,22.46
2023-04-30T10:40:15.086Z,22.47
2023-04-30T10:42:48.192Z,22.48
2023-04-30T10:45:21.310Z,22.49
2023-04-30T10:47:54.245Z,22.50
2023-04-30T10:50:27.256Z,22.51
2023-04-30T10:53:00.258Z,22.51
2023-04-30T10:55:33.288Z,22.52
2023-04-30T10:58:06.203Z,22.53
2023-04-30T11:00:39.339Z,22.54
2023-04-30T11:03:12.406Z,22.54
2023-04-30T11:05:44.907Z,22.56
2023-04-30T11:08:18.109Z,22.57
2023-04-30T11:10:51.176Z,22.58
2023-04-30T11:13:23.935Z,22.58
2023-04-30T11:15:57.488Z,22.59
2023-04-30T11:18:30.943Z,22.60
2023-04-30T11:21:03.943Z,22.61
2023-04-30T11:23:41.735Z,22.62
2023-04-30T11:26:10.081Z,22.63
2023-04-30T11:28:43.055Z,22.63
2023-04-30T11:31:16.227Z,22.65
2023-04-30T11:33:49.111Z,22.65
2023-04-30T11:36:22.222Z,22.66
2023-04-30T11:38:55.293Z,22.67
2023-04-30T11:41:28.315Z,22.68
2023-04-30T11:44:01.171Z,22.68
2023-04-30T11:46:34.366Z,22.69
2023-04-30T11:49:07.255Z,22.70
2023-04-30T11:51:40.166Z,22.71
2023-04-30T11:54:13.184Z,22.71
2023-04-30T11:56:46.421Z,22.72
2023-04-30T11:59:19.307Z,22.73
2023-04-30T12:01:52.166Z,22.73
2023-04-30T12:04:25.206Z,22.74
2023-04-30T12:06:58.168Z,22.75
2023-04-30T12:09:31.259Z,22.75
2023-04-30T12:12:04.060Z,22.76
2023-04-30T12:14:37.164Z,22.76
2023-04-30T12:17:10.045Z,22.77
2023-04-30T12:19:43.202Z,22.78
2023-04-30T12:22:16.488Z,22.78
2023-04-30T12:24:50.288Z,22.79
2023-04-30T12:27:23.558Z,22.79
2023-04-30T12:29:57.570Z,22.80
2023-04-30T12:32:30.379Z,22.81
2023-04-30T12:35:03.065Z,22.81
2023-04-30T12:37:36.264Z,22.82
2023-04-30T12:40:23.149Z,22.83
2023-04-30T12:42:56.431Z,22.84
2023-04-30T12:45:29.101Z,22.85
2023-04-30T12:48:02.260Z,22.86
2023-04-30T12:50:35.182Z,22.87
2023-04-30T12:53:08.094Z,22.88
2023-04-30T12:55:41.054Z,22.90
2023-04-30T12:58:14.173Z,22.91
2023-04-30T13:00:47.134Z,22.92
2023-04-30T13:03:20.360Z,22.93
2023-04-30T13:05:53.094Z,22.94
2023-04-30T13:08:26.146Z,22.96
2023-04-30T13:10:59.432Z,22.97
2023-04-30T13:13:36.312Z,22.98
2023-04-30T13:16:09.519Z,22.99
2023-04-30T13:18:42.533Z,22.99
2023-04-30T13:21:15.572Z,23.00
2023-04-30T13:23:53.571Z,23.00
2023-04-30T13:26:22.501Z,23.00
2023-04-30T13:28:55.494Z,23.00
2023-04-30T13:31:32.469Z,23.01
2023-04-30T13:34:19.405Z,23.01
2023-04-30T13:36:52.343Z,23.00
2023-04-30T13:39:25.418Z,23.00
2023-04-30T13:41:58.507Z,23.00
2023-04-30T13:44:31.502Z,23.00
2023-04-30T13:47:04.544Z,23.00
2023-04-30T13:49:37.533Z,22.99
2023-04-30T13:52:10.392Z,22.99
2023-04-30T13:54:43.420Z,22.99
2023-04-30T13:57:16.505Z,22.98
2023-04-30T13:59:49.588Z,22.97
2023-04-30T14:02:22.662Z,22.97
2023-04-30T14:05:05.041Z,22.97
2023-04-30T14:07:43.311Z,22.96
2023-04-30T14:10:16.284Z,22.96
2023-04-30T14:12:49.573Z,22.96
2023-04-30T14:15:22.206Z,22.96
2023-04-30T14:17:55.632Z,22.96
2023-04-30T14:20:28.220Z,22.95
2023-04-30T14:23:02.894Z,22.95
2023-04-30T14:25:35.349Z,22.94
2023-04-30T14:28:10.292Z,22.94
2023-04-30T14:30:43.792Z,22.93
2023-04-30T14:33:17.495Z,22.93
2023-04-30T14:35:50.373Z,22.93
2023-04-30T14:38:23.204Z,22.93
2023-04-30T14:40:57.470Z,22.93
2023-04-30T14:43:30.234Z,22.93
2023-04-30T14:46:03.338Z,22.94
2023-04-30T14:48:36.453Z,22.94
2023-04-30T14:51:09.542Z,22.95
2023-04-30T14:53:42.591Z,22.95
2023-04-30T14:56:15.396Z,22.96
2023-04-30T14:58:48.490Z,22.96
2023-04-30T15:01:21.441Z,22.97
2023-04-30T15:03:54.724Z,22.97
2023-04-30T15:06:27.622Z,22.98
2023-04-30T15:09:00.635Z,22.98
2023-04-30T15:11:33.398Z,22.99
2023-04-30T15:14:06.541Z,23.01
2023-04-30T15:16:39.738Z,23.03
2023-04-30T15:19:12.461Z,23.05
2023-04-30T15:21:46.979Z,23.07
2023-04-30T15:24:18.683Z,23.09
2023-04-30T15:26:51.458Z,23.10
2023-04-30T15:29:24.320Z,23.11
2023-04-30T15:31:57.686Z,23.12
2023-04-30T15:34:30.324Z,23.13
2023-04-30T15:37:03.303Z,23.15
2023-04-30T15:39:36.430Z,23.16
2023-04-30T15:42:23.420Z,23.18
2023-04-30T15:44:56.360Z,23.19
2023-04-30T15:47:29.681Z,23.21
2023-04-30T15:50:02.775Z,23.23
2023-04-30T15:52:37.062Z,23.25
2023-04-30T15:55:08.490Z,23.27
2023-04-30T15:57:41.760Z,23.29
2023-04-30T16:00:14.708Z,23.31
2023-04-30T16:02:48.041Z,23.33
2023-04-30T16:05:21.650Z,23.35
2023-04-30T16:07:54.515Z,23.37
2023-04-30T16:10:27.594Z,23.38
2023-04-30T16:13:00.714Z,23.39
2023-04-30T16:15:33.657Z,23.40
2023-04-30T16:18:06.561Z,23.41
2023-04-30T16:20:39.527Z,23.42
2023-04-30T16:23:12.550Z,23.42
2023-04-30T16:25:45.731Z,23.43
2023-04-30T16:28:18.717Z,23.43
2023-04-30T16:30:51.582Z,23.43
2023-04-30T16:33:24.602Z,23.44
2023-04-30T16:35:57.393Z,23.44
2023-04-30T16:38:30.426Z,23.44
2023-04-30T16:41:03.609Z,23.43
2023-04-30T16:43:36.728Z,23.43
2023-04-30T16:46:09.707Z,23.43
2023-04-30T16:48:42.804Z,23.43
2023-04-30T16:51:15.430Z,23.43
2023-04-30T16:53:48.578Z,23.42
2023-04-30T16:56:21.671Z,23.42
2023-04-30T16:58:54.704Z,23.42
2023-04-30T17:01:27.781Z,23.42
2023-04-30T17:04:00.790Z,23.42
2023-04-30T17:06:33.563Z,23.42
2023-04-30T17:09:06.484Z,23.42
2023-04-30T17:11:39.758Z,23.42
2023-04-30T17:14:12.584Z,23.42
2023-04-30T17:16:59.348Z,23.43
2023-04-30T17:19:32.859Z,23.43
2023-04-30T17:22:05.472Z,23.44
2023-04-30T17:24:38.824Z,23.44
2023-04-30T17:27:11.813Z,23.45
2023-04-30T17:29:44.784Z,23.45
2023-04-30T17:32:17.757Z,23.45
2023-04-30T17:34:50.497Z,23.46
2023-04-30T17:37:23.886Z,23.46
2023-04-30T17:39:57.063Z,23.46
2023-04-30T17:42:29.486Z,23.46
2023-04-30T17:45:02.485Z,23.47
2023-04-30T17:47:35.708Z,23.47
2023-04-30T17:50:08.642Z,23.47
2023-04-30T17:52:41.510Z,23.48
2023-04-30T17:55:14.638Z,23.48
2023-04-30T17:57:47.663Z,23.48
2023-04-30T18:00:20.744Z,23.48
2023-04-30T18:02:53.715Z,23.47
2023-04-30T18:05:27.095Z,23.47
2023-04-30T18:08:00.791Z,23.47
2023-04-30T18:10:33.734Z,23.47
2023-04-30T18:13:06.901Z,23.47
2023-04-30T18:15:39.691Z,23.47
2023-04-30T18:18:12.701Z,23.47
2023-04-30T18:20:45.822Z,23.47
2023-04-30T18:23:18.667Z,23.48
2023-04-30T18:25:52.720Z,23.47
2023-04-30T18:28:25.551Z,23.47
2023-04-30T18:30:58.904Z,23.47
2023-04-30T18:33:31.614Z,23.46
2023-04-30T18:36:05.738Z,23.46
2023-04-30T18:38:37.789Z,23.46
2023-04-30T18:41:10.596Z,23.46
2023-04-30T18:43:43.580Z,23.45
2023-04-30T18:46:16.827Z,23.45
2023-04-30T18:48:49.763Z,23.45
2023-04-30T18:51:22.605Z,23.46
2023-04-30T18:53:55.891Z,23.46
2023-04-30T18:56:28.603Z,23.46
2023-04-30T18:59:01.591Z,23.46
2023-04-30T19:01:35.714Z,23.47
2023-04-30T19:04:08.615Z,23.48
2023-04-30T19:06:41.783Z,23.48
2023-04-30T19:09:14.618Z,23.49
2023-04-30T19:11:47.787Z,23.49
2023-04-30T19:14:20.753Z,23.49
2023-04-30T19:16:57.111Z,23.50
2023-04-30T19:19:29.710Z,23.50
2023-04-30T19:22:02.799Z,23.51
2023-04-30T19:24:35.863Z,23.51
2023-04-30T19:27:08.818Z,23.52
2023-04-30T19:29:41.862Z,23.52
2023-04-30T19:32:14.675Z,23.53
2023-04-30T19:34:47.663Z,23.53
2023-04-30T19:37:20.801Z,23.54
2023-04-30T19:39:55.165Z,23.54
2023-04-30T19:42:30.848Z,23.55
2023-04-30T19:45:03.669Z,23.55
2023-04-30T19:47:37.080Z,23.56
2023-04-30T19:50:09.691Z,23.56
2023-04-30T19:52:42.927Z,23.56
2023-04-30T19:55:16.226Z,23.56
2023-04-30T19:57:49.879Z,23.56
2023-04-30T20:00:22.739Z,23.57
2023-04-30T20:02:55.887Z,23.57
2023-04-30T20:05:28.822Z,23.57
2023-04-30T20:08:04.703Z,23.58
2023-04-30T20:10:38.261Z,23.58
2023-04-30T20:13:11.986Z,23.58
2023-04-30T20:15:45.139Z,23.58
2023-04-30T20:18:17.727Z,23.58
2023-04-30T20:20:51.858Z,23.58
2023-04-30T20:23:28.369Z,23.58
2023-04-30T20:26:02.052Z,23.58
2023-04-30T20:28:34.908Z,23.58
2023-04-30T20:31:08.101Z,23.58
2023-04-30T20:33:41.182Z,23.58
2023-04-30T20:36:14.140Z,23.57
2023-04-30T20:39:01.076Z,23.57
2023-04-30T20:41:34.133Z,23.57
2023-04-30T20:44:06.875Z,23.57
2023-04-30T20:46:39.943Z,23.57
2023-04-30T20:49:12.844Z,23.57
2023-04-30T20:51:46.200Z,23.57
2023-04-30T20:54:19.074Z,23.58
2023-04-30T20:56:51.929Z,23.58
2023-04-30T20:59:25.062Z,23.58
2023-04-30T21:01:58.106Z,23.58
2023-04-30T21:04:31.000Z,23.58
2023-04-30T21:07:04.072Z,23.57
2023-04-30T21:09:37.149Z,23.57
2023-04-30T21:12:10.051Z,23.57
2023-04-30T21:14:42.827Z,23.57
2023-04-30T21:17:16.107Z,23.57
2023-04-30T21:19:49.285Z,23.57
2023-04-30T21:22:23.076Z,23.57
2023-04-30T21:24:55.821Z,23.57
2023-04-30T21:27:28.926Z,23.56
2023-04-30T21:30:01.934Z,23.56
2023-04-30T21:32:35.054Z,23.56
2023-04-30T21:35:07.827Z,23.56
2023-04-30T21:37:41.062Z,23.55
2023-04-30T21:40:14.041Z,23.54
2023-04-30T21:42:47.003Z,23.54
2023-04-30T21:45:19.991Z,23.53
2023-04-30T21:47:53.065Z,23.52
2023-04-30T21:50:26.187Z,23.51
2023-04-30T21:53:02.793Z,23.50
2023-04-30T21:55:35.878Z,23.49
2023-04-30T21:58:08.912Z,23.49
2023-04-30T22:00:42.085Z,23.48
2023-04-30T22:03:15.044Z,23.47
2023-04-30T22:05:48.370Z,23.46
2023-04-30T22:08:21.861Z,23.46
2023-04-30T22:10:55.004Z,23.45
2023-04-30T22:13:27.894Z,23.45
2023-04-30T22:16:00.899Z,23.44
2023-04-30T22:18:34.060Z,23.43
2023-04-30T22:21:06.925Z,23.42
2023-04-30T22:23:40.070Z,23.41
2023-04-30T22:26:13.136Z,23.41
2023-04-30T22:28:46.006Z,23.40
2023-04-30T22:31:19.273Z,23.39
2023-04-30T22:33:51.938Z,23.38
2023-04-30T22:36:25.353Z,23.37
2023-04-30T22:38:59.101Z,23.36
2023-04-30T22:41:32.076Z,23.35
2023-04-30T22:44:04.911Z,23.35
2023-04-30T22:46:38.121Z,23.34
2023-04-30T22:49:19.918Z,23.33
2023-04-30T22:51:44.121Z,23.32
2023-04-30T22:54:17.159Z,23.31
2023-04-30T22:56:50.248Z,23.31
2023-04-30T22:59:23.220Z,23.30
2023-04-30T23:01:56.190Z,23.29
2023-04-30T23:04:29.097Z,23.28
2023-04-30T23:07:02.302Z,23.28
2023-04-30T23:09:35.482Z,23.27
2023-04-30T23:12:09.255Z,23.27
2023-04-30T23:14:42.344Z,23.26
2023-04-30T23:17:15.536Z,23.25
2023-04-30T23:19:49.083Z,23.25
2023-04-30T23:22:22.346Z,23.24
2023-04-30T23:24:55.264Z,23.24
2023-04-30T23:27:42.100Z,23.23
2023-04-30T23:30:15.295Z,23.23
2023-04-30T23:32:48.042Z,23.22
2023-04-30T23:35:21.397Z,23.21
2023-04-30T23:37:54.218Z,23.20
2023-04-30T23:40:27.306Z,23.20
2023-04-30T23:43:00.446Z,23.19
2023-04-30T23:45:33.083Z,23.18
2023-04-30T23:48:06.344Z,23.17
2023-04-30T23:50:39.308Z,23.17
2023-04-30T23:53:12.498Z,23.16
2023-04-30T23:55:46.379Z,23.15
2023-04-30T23:58:19.363Z,23.15
